sensor_id;sensor_type;location;lat;lon;timestamp;P1;durP1;ratioP1;P2;durP2;ratioP2
31081;SDS011;17737;52.586;13.284;2023-02-28T00:01:28;1.08;;;0.70;;
31081;SDS011;17737;52.586;13.284;2023-02-28T00:03:57;1.35;;;0.95;;
31081;SDS011;17737;52.586;13.284;2023-02-28T00:06:27;0.70;;;0.70;;
31081;SDS011;17737;52.586;13.284;2023-02-28T00:08:55;1.00;;;0.70;;
31081;SDS011;17737;52.586;13.284;2023-02-28T00:11:23;0.80;;;0.60;;
31081;SDS011;17737;52.586;13.284;2023-02-28T00:13:51;1.20;;;0.80;;
31081;SDS011;17737;52.586;13.284;2023-02-28T00:16:20;2.03;;;0.70;;
31081;SDS011;17737;52.586;13.284;2023-02-28T00:18:50;0.80;;;0.73;;
31081;SDS011;17737;52.586;13.284;2023-02-28T00:21:18;1.02;;;0.88;;
31081;SDS011;17737;52.586;13.284;2023-02-28T00:26:16;0.70;;;0.70;;
31081;SDS011;17737;52.586;13.284;2023-02-28T00:28:47;1.23;;;0.80;;
31081;SDS011;17737;52.586;13.284;2023-02-28T00:31:15;0.80;;;0.80;;
31081;SDS011;17737;52.586;13.284;2023-02-28T00:33:43;0.70;;;0.70;;
31081;SDS011;17737;52.586;13.284;2023-02-28T00:36:11;0.88;;;0.88;;
31081;SDS011;17737;52.586;13.284;2023-02-28T00:38:39;1.75;;;1.00;;
31081;SDS011;17737;52.586;13.284;2023-02-28T00:41:09;0.90;;;0.90;;
31081;SDS011;17737;52.586;13.284;2023-02-28T00:46:07;1.90;;;0.80;;
31081;SDS011;17737;52.586;13.284;2023-02-28T00:48:36;1.10;;;1.00;;
31081;SDS011;17737;52.586;13.284;2023-02-28T00:51:04;1.10;;;0.77;;
31081;SDS011;17737;52.586;13.284;2023-02-28T00:53:32;0.60;;;0.52;;
31081;SDS011;17737;52.586;13.284;2023-02-28T00:56:00;0.68;;;0.60;;
31081;SDS011;17737;52.586;13.284;2023-02-28T00:58:30;0.65;;;0.57;;
31081;SDS011;17737;52.586;13.284;2023-02-28T01:00:58;1.30;;;0.80;;
31081;SDS011;17737;52.586;13.284;2023-02-28T01:03:26;1.08;;;0.82;;
31081;SDS011;17737;52.586;13.284;2023-02-28T01:05:54;0.93;;;0.70;;
31081;SDS011;17737;52.586;13.284;2023-02-28T01:08:22;1.10;;;0.70;;
31081;SDS011;17737;52.586;13.284;2023-02-28T01:13:20;0.63;;;0.63;;
31081;SDS011;17737;52.586;13.284;2023-02-28T01:15:51;0.73;;;0.70;;
31081;SDS011;17737;52.586;13.284;2023-02-28T01:18:23;1.13;;;0.80;;
31081;SDS011;17737;52.586;13.284;2023-02-28T01:20:51;1.23;;;0.70;;
31081;SDS011;17737;52.586;13.284;2023-02-28T01:23:19;0.80;;;0.80;;
31081;SDS011;17737;52.586;13.284;2023-02-28T01:25:49;0.82;;;0.80;;
31081;SDS011;17737;52.586;13.284;2023-02-28T01:28:17;1.10;;;0.80;;
31081;SDS011;17737;52.586;13.284;2023-02-28T01:30:47;0.83;;;0.70;;
31081;SDS011;17737;52.586;13.284;2023-02-28T01:33:17;1.05;;;0.70;;
31081;SDS011;17737;52.586;13.284;2023-02-28T01:35:45;0.80;;;0.73;;
31081;SDS011;17737;52.586;13.284;2023-02-28T01:38:13;1.20;;;1.10;;
31081;SDS011;17737;52.586;13.284;2023-02-28T01:40:48;0.73;;;0.63;;
31081;SDS011;17737;52.586;13.284;2023-02-28T01:43:20;0.70;;;0.70;;
31081;SDS011;17737;52.586;13.284;2023-02-28T01:45:52;1.10;;;0.60;;
31081;SDS011;17737;52.586;13.284;2023-02-28T01:48:24;0.77;;;0.77;;
31081;SDS011;17737;52.586;13.284;2023-02-28T01:50:59;1.48;;;0.90;;
31081;SDS011;17737;52.586;13.284;2023-02-28T01:53:33;1.00;;;0.90;;
31081;SDS011;17737;52.586;13.284;2023-02-28T01:56:09;0.60;;;0.60;;
31081;SDS011;17737;52.586;13.284;2023-02-28T01:58:46;1.00;;;0.80;;
31081;SDS011;17737;52.586;13.284;2023-02-28T02:01:15;0.98;;;0.80;;
31081;SDS011;17737;52.586;13.284;2023-02-28T02:03:49;1.02;;;0.90;;
31081;SDS011;17737;52.586;13.284;2023-02-28T02:06:22;1.52;;;0.80;;
31081;SDS011;17737;52.586;13.284;2023-02-28T02:08:52;0.80;;;0.63;;
31081;SDS011;17737;52.586;13.284;2023-02-28T02:11:21;0.70;;;0.70;;
31081;SDS011;17737;52.586;13.284;2023-02-28T02:14:02;0.60;;;0.60;;
31081;SDS011;17737;52.586;13.284;2023-02-28T02:17:01;0.90;;;0.82;;
31081;SDS011;17737;52.586;13.284;2023-02-28T02:26:27;0.95;;;0.80;;
31081;SDS011;17737;52.586;13.284;2023-02-28T02:36:21;0.80;;;0.70;;
31081;SDS011;17737;52.586;13.284;2023-02-28T02:38:53;0.90;;;0.70;;
31081;SDS011;17737;52.586;13.284;2023-02-28T02:41:32;0.98;;;0.80;;
31081;SDS011;17737;52.586;13.284;2023-02-28T02:44:10;1.57;;;0.97;;
31081;SDS011;17737;52.586;13.284;2023-02-28T02:46:49;1.05;;;0.90;;
31081;SDS011;17737;52.586;13.284;2023-02-28T02:49:26;0.95;;;0.80;;
31081;SDS011;17737;52.586;13.284;2023-02-28T02:52:02;0.75;;;0.75;;
31081;SDS011;17737;52.586;13.284;2023-02-28T02:54:35;0.70;;;0.60;;
31081;SDS011;17737;52.586;13.284;2023-02-28T02:57:09;1.33;;;1.08;;
31081;SDS011;17737;52.586;13.284;2023-02-28T02:59:45;1.63;;;1.00;;
31081;SDS011;17737;52.586;13.284;2023-02-28T03:02:16;1.50;;;0.85;;
31081;SDS011;17737;52.586;13.284;2023-02-28T03:04:48;1.38;;;0.70;;
31081;SDS011;17737;52.586;13.284;2023-02-28T03:07:28;0.80;;;0.75;;
31081;SDS011;17737;52.586;13.284;2023-02-28T03:09:56;1.08;;;0.98;;
31081;SDS011;17737;52.586;13.284;2023-02-28T03:12:27;1.05;;;0.90;;
31081;SDS011;17737;52.586;13.284;2023-02-28T03:15:17;1.38;;;0.93;;
31081;SDS011;17737;52.586;13.284;2023-02-28T03:17:58;0.75;;;0.75;;
31081;SDS011;17737;52.586;13.284;2023-02-28T03:20:37;1.70;;;1.20;;
31081;SDS011;17737;52.586;13.284;2023-02-28T03:25:54;1.20;;;1.00;;
31081;SDS011;17737;52.586;13.284;2023-02-28T03:28:31;1.27;;;1.00;;
31081;SDS011;17737;52.586;13.284;2023-02-28T03:31:13;1.23;;;1.00;;
31081;SDS011;17737;52.586;13.284;2023-02-28T03:33:47;1.13;;;0.73;;
31081;SDS011;17737;52.586;13.284;2023-02-28T03:36:22;1.10;;;1.00;;
31081;SDS011;17737;52.586;13.284;2023-02-28T03:38:58;1.30;;;1.00;;
31081;SDS011;17737;52.586;13.284;2023-02-28T03:41:32;0.80;;;0.77;;
31081;SDS011;17737;52.586;13.284;2023-02-28T03:44:10;0.80;;;0.80;;
31081;SDS011;17737;52.586;13.284;2023-02-28T03:46:44;2.03;;;0.90;;
31081;SDS011;17737;52.586;13.284;2023-02-28T03:49:27;1.25;;;0.90;;
31081;SDS011;17737;52.586;13.284;2023-02-28T03:52:02;1.05;;;0.93;;
31081;SDS011;17737;52.586;13.284;2023-02-28T03:54:38;0.88;;;0.80;;
31081;SDS011;17737;52.586;13.284;2023-02-28T03:57:15;1.25;;;1.00;;
31081;SDS011;17737;52.586;13.284;2023-02-28T03:59:56;1.10;;;0.90;;
31081;SDS011;17737;52.586;13.284;2023-02-28T04:02:30;1.13;;;0.82;;
31081;SDS011;17737;52.586;13.284;2023-02-28T04:04:59;1.33;;;1.00;;
31081;SDS011;17737;52.586;13.284;2023-02-28T04:07:28;1.02;;;0.93;;
31081;SDS011;17737;52.586;13.284;2023-02-28T04:12:26;1.40;;;0.80;;
31081;SDS011;17737;52.586;13.284;2023-02-28T04:14:54;1.30;;;0.90;;
31081;SDS011;17737;52.586;13.284;2023-02-28T04:17:22;1.25;;;1.02;;
31081;SDS011;17737;52.586;13.284;2023-02-28T04:19:50;1.55;;;0.90;;
31081;SDS011;17737;52.586;13.284;2023-02-28T04:22:18;0.85;;;0.70;;
31081;SDS011;17737;52.586;13.284;2023-02-28T04:24:46;1.27;;;1.00;;
31081;SDS011;17737;52.586;13.284;2023-02-28T04:27:15;1.52;;;0.93;;
31081;SDS011;17737;52.586;13.284;2023-02-28T04:29:43;0.70;;;0.70;;
31081;SDS011;17737;52.586;13.284;2023-02-28T04:32:11;1.13;;;0.77;;
31081;SDS011;17737;52.586;13.284;2023-02-28T04:34:39;1.75;;;1.02;;
31081;SDS011;17737;52.586;13.284;2023-02-28T04:37:07;1.02;;;0.90;;
31081;SDS011;17737;52.586;13.284;2023-02-28T04:39:39;0.98;;;0.80;;
31081;SDS011;17737;52.586;13.284;2023-02-28T04:42:09;1.00;;;0.90;;
31081;SDS011;17737;52.586;13.284;2023-02-28T04:44:38;1.25;;;1.10;;
31081;SDS011;17737;52.586;13.284;2023-02-28T04:47:06;1.10;;;0.90;;
31081;SDS011;17737;52.586;13.284;2023-02-28T04:49:34;1.42;;;0.85;;
31081;SDS011;17737;52.586;13.284;2023-02-28T04:52:02;1.40;;;0.85;;
31081;SDS011;17737;52.586;13.284;2023-02-28T04:54:32;1.13;;;0.90;;
31081;SDS011;17737;52.586;13.284;2023-02-28T04:57:00;1.90;;;0.65;;
31081;SDS011;17737;52.586;13.284;2023-02-28T04:59:28;1.15;;;0.95;;
31081;SDS011;17737;52.586;13.284;2023-02-28T05:01:57;0.80;;;0.80;;
31081;SDS011;17737;52.586;13.284;2023-02-28T05:06:53;1.23;;;1.05;;
31081;SDS011;17737;52.586;13.284;2023-02-28T05:09:21;1.23;;;0.80;;
31081;SDS011;17737;52.586;13.284;2023-02-28T05:11:49;0.88;;;0.80;;
31081;SDS011;17737;52.586;13.284;2023-02-28T05:14:17;1.40;;;1.05;;
31081;SDS011;17737;52.586;13.284;2023-02-28T05:16:45;2.15;;;1.27;;
31081;SDS011;17737;52.586;13.284;2023-02-28T05:19:14;0.90;;;0.70;;
31081;SDS011;17737;52.586;13.284;2023-02-28T05:21:48;1.23;;;1.00;;
31081;SDS011;17737;52.586;13.284;2023-02-28T05:24:20;0.75;;;0.75;;
31081;SDS011;17737;52.586;13.284;2023-02-28T05:26:50;0.93;;;0.88;;
31081;SDS011;17737;52.586;13.284;2023-02-28T05:29:20;0.85;;;0.70;;
31081;SDS011;17737;52.586;13.284;2023-02-28T05:31:48;1.40;;;1.10;;
31081;SDS011;17737;52.586;13.284;2023-02-28T05:34:18;0.95;;;0.88;;
31081;SDS011;17737;52.586;13.284;2023-02-28T05:36:46;1.75;;;1.15;;
31081;SDS011;17737;52.586;13.284;2023-02-28T05:39:14;0.75;;;0.70;;
31081;SDS011;17737;52.586;13.284;2023-02-28T05:41:42;0.93;;;0.73;;
31081;SDS011;17737;52.586;13.284;2023-02-28T05:44:11;1.80;;;1.02;;
31081;SDS011;17737;52.586;13.284;2023-02-28T05:46:39;1.23;;;1.10;;
31081;SDS011;17737;52.586;13.284;2023-02-28T05:49:07;1.98;;;1.08;;
31081;SDS011;17737;52.586;13.284;2023-02-28T05:51:36;1.10;;;1.00;;
31081;SDS011;17737;52.586;13.284;2023-02-28T05:54:06;1.52;;;0.90;;
31081;SDS011;17737;52.586;13.284;2023-02-28T05:56:34;1.77;;;1.17;;
31081;SDS011;17737;52.586;13.284;2023-02-28T05:59:05;1.30;;;1.20;;
31081;SDS011;17737;52.586;13.284;2023-02-28T06:01:34;1.23;;;0.95;;
31081;SDS011;17737;52.586;13.284;2023-02-28T06:04:05;0.95;;;0.82;;
31081;SDS011;17737;52.586;13.284;2023-02-28T06:06:52;1.60;;;0.90;;
31081;SDS011;17737;52.586;13.284;2023-02-28T06:11:48;1.63;;;1.17;;
31081;SDS011;17737;52.586;13.284;2023-02-28T06:14:16;1.85;;;1.15;;
31081;SDS011;17737;52.586;13.284;2023-02-28T06:16:46;1.00;;;0.90;;
31081;SDS011;17737;52.586;13.284;2023-02-28T06:19:15;1.02;;;0.88;;
31081;SDS011;17737;52.586;13.284;2023-02-28T06:21:43;1.20;;;1.05;;
31081;SDS011;17737;52.586;13.284;2023-02-28T06:24:12;1.23;;;1.00;;
31081;SDS011;17737;52.586;13.284;2023-02-28T06:26:40;1.83;;;1.13;;
31081;SDS011;17737;52.586;13.284;2023-02-28T06:29:08;1.70;;;1.05;;
31081;SDS011;17737;52.586;13.284;2023-02-28T06:31:36;1.17;;;0.73;;
31081;SDS011;17737;52.586;13.284;2023-02-28T06:34:05;1.23;;;0.88;;
31081;SDS011;17737;52.586;13.284;2023-02-28T06:36:32;1.55;;;1.15;;
31081;SDS011;17737;52.586;13.284;2023-02-28T06:39:00;2.10;;;1.10;;
31081;SDS011;17737;52.586;13.284;2023-02-28T06:41:30;1.08;;;0.90;;
31081;SDS011;17737;52.586;13.284;2023-02-28T06:44:20;1.15;;;0.82;;
31081;SDS011;17737;52.586;13.284;2023-02-28T06:46:48;1.63;;;1.30;;
31081;SDS011;17737;52.586;13.284;2023-02-28T06:49:18;1.10;;;1.00;;
31081;SDS011;17737;52.586;13.284;2023-02-28T06:51:46;1.73;;;0.98;;
31081;SDS011;17737;52.586;13.284;2023-02-28T06:54:14;1.63;;;1.25;;
31081;SDS011;17737;52.586;13.284;2023-02-28T06:56:44;1.02;;;0.82;;
31081;SDS011;17737;52.586;13.284;2023-02-28T06:59:12;1.77;;;1.15;;
31081;SDS011;17737;52.586;13.284;2023-02-28T07:01:40;2.10;;;1.35;;
31081;SDS011;17737;52.586;13.284;2023-02-28T07:04:09;2.03;;;1.05;;
31081;SDS011;17737;52.586;13.284;2023-02-28T07:06:37;1.25;;;1.00;;
31081;SDS011;17737;52.586;13.284;2023-02-28T07:09:04;2.55;;;1.45;;
31081;SDS011;17737;52.586;13.284;2023-02-28T07:11:33;1.75;;;0.88;;
31081;SDS011;17737;52.586;13.284;2023-02-28T07:14:02;1.17;;;1.08;;
31081;SDS011;17737;52.586;13.284;2023-02-28T07:16:30;0.98;;;0.85;;
31081;SDS011;17737;52.586;13.284;2023-02-28T07:18:58;1.75;;;0.98;;
31081;SDS011;17737;52.586;13.284;2023-02-28T07:21:26;1.33;;;0.90;;
31081;SDS011;17737;52.586;13.284;2023-02-28T07:23:55;1.33;;;1.00;;
31081;SDS011;17737;52.586;13.284;2023-02-28T07:26:24;1.48;;;0.98;;
31081;SDS011;17737;52.586;13.284;2023-02-28T07:28:52;1.27;;;1.00;;
31081;SDS011;17737;52.586;13.284;2023-02-28T07:31:21;1.27;;;1.10;;
31081;SDS011;17737;52.586;13.284;2023-02-28T07:36:17;0.95;;;0.80;;
31081;SDS011;17737;52.586;13.284;2023-02-28T07:38:46;0.70;;;0.70;;
31081;SDS011;17737;52.586;13.284;2023-02-28T07:41:16;0.80;;;0.70;;
31081;SDS011;17737;52.586;13.284;2023-02-28T07:43:47;0.88;;;0.80;;
31081;SDS011;17737;52.586;13.284;2023-02-28T07:46:15;1.40;;;1.10;;
31081;SDS011;17737;52.586;13.284;2023-02-28T07:48:48;1.17;;;0.90;;
31081;SDS011;17737;52.586;13.284;2023-02-28T07:51:16;1.15;;;0.93;;
31081;SDS011;17737;52.586;13.284;2023-02-28T07:53:44;0.95;;;0.80;;
31081;SDS011;17737;52.586;13.284;2023-02-28T07:56:12;1.15;;;0.90;;
31081;SDS011;17737;52.586;13.284;2023-02-28T07:58:40;1.67;;;1.02;;
31081;SDS011;17737;52.586;13.284;2023-02-28T08:01:09;1.02;;;0.90;;
31081;SDS011;17737;52.586;13.284;2023-02-28T08:03:38;1.08;;;0.88;;
31081;SDS011;17737;52.586;13.284;2023-02-28T08:08:44;1.25;;;0.80;;
31081;SDS011;17737;52.586;13.284;2023-02-28T08:11:13;6.13;;;0.90;;
31081;SDS011;17737;52.586;13.284;2023-02-28T08:13:42;0.80;;;0.80;;
31081;SDS011;17737;52.586;13.284;2023-02-28T08:16:10;1.00;;;0.90;;
31081;SDS011;17737;52.586;13.284;2023-02-28T08:18:43;0.70;;;0.68;;
31081;SDS011;17737;52.586;13.284;2023-02-28T08:21:12;0.75;;;0.75;;
31081;SDS011;17737;52.586;13.284;2023-02-28T08:23:40;0.88;;;0.70;;
31081;SDS011;17737;52.586;13.284;2023-02-28T08:26:08;0.70;;;0.70;;
31081;SDS011;17737;52.586;13.284;2023-02-28T08:28:37;0.63;;;0.63;;
31081;SDS011;17737;52.586;13.284;2023-02-28T08:31:08;0.80;;;0.80;;
31081;SDS011;17737;52.586;13.284;2023-02-28T08:33:39;0.70;;;0.70;;
31081;SDS011;17737;52.586;13.284;2023-02-28T08:36:09;0.65;;;0.65;;
31081;SDS011;17737;52.586;13.284;2023-02-28T08:38:38;0.70;;;0.70;;
31081;SDS011;17737;52.586;13.284;2023-02-28T08:43:38;0.70;;;0.70;;
31081;SDS011;17737;52.586;13.284;2023-02-28T08:46:07;0.50;;;0.50;;
31081;SDS011;17737;52.586;13.284;2023-02-28T08:48:39;0.40;;;0.40;;
31081;SDS011;17737;52.586;13.284;2023-02-28T08:51:08;0.50;;;0.50;;
31081;SDS011;17737;52.586;13.284;2023-02-28T08:53:40;0.60;;;0.50;;
31081;SDS011;17737;52.586;13.284;2023-02-28T08:56:09;0.45;;;0.45;;
31081;SDS011;17737;52.586;13.284;2023-02-28T08:58:40;1.65;;;0.60;;
31081;SDS011;17737;52.586;13.284;2023-02-28T09:01:08;0.50;;;0.50;;
31081;SDS011;17737;52.586;13.284;2023-02-28T09:03:39;1.27;;;0.73;;
31081;SDS011;17737;52.586;13.284;2023-02-28T09:06:08;0.50;;;0.50;;
31081;SDS011;17737;52.586;13.284;2023-02-28T09:08:38;0.60;;;0.50;;
31081;SDS011;17737;52.586;13.284;2023-02-28T09:11:08;0.30;;;0.30;;
31081;SDS011;17737;52.586;13.284;2023-02-28T09:13:37;0.50;;;0.50;;
31081;SDS011;17737;52.586;13.284;2023-02-28T09:18:37;0.50;;;0.50;;
31081;SDS011;17737;52.586;13.284;2023-02-28T09:21:07;0.40;;;0.40;;
31081;SDS011;17737;52.586;13.284;2023-02-28T09:23:38;0.38;;;0.38;;
31081;SDS011;17737;52.586;13.284;2023-02-28T09:26:07;0.43;;;0.43;;
31081;SDS011;17737;52.586;13.284;2023-02-28T09:28:40;0.45;;;0.45;;
31081;SDS011;17737;52.586;13.284;2023-02-28T09:31:10;0.40;;;0.40;;
31081;SDS011;17737;52.586;13.284;2023-02-28T09:33:41;0.55;;;0.55;;
31081;SDS011;17737;52.586;13.284;2023-02-28T09:36:09;0.60;;;0.60;;
31081;SDS011;17737;52.586;13.284;2023-02-28T09:38:37;0.40;;;0.40;;
31081;SDS011;17737;52.586;13.284;2023-02-28T09:41:11;0.40;;;0.40;;
31081;SDS011;17737;52.586;13.284;2023-02-28T09:43:44;0.30;;;0.30;;
31081;SDS011;17737;52.586;13.284;2023-02-28T09:46:24;0.63;;;0.40;;
31081;SDS011;17737;52.586;13.284;2023-02-28T09:48:59;0.40;;;0.40;;
31081;SDS011;17737;52.586;13.284;2023-02-28T09:51:33;0.95;;;0.50;;
31081;SDS011;17737;52.586;13.284;2023-02-28T09:54:15;0.50;;;0.50;;
31081;SDS011;17737;52.586;13.284;2023-02-28T09:56:48;0.50;;;0.50;;
31081;SDS011;17737;52.586;13.284;2023-02-28T09:59:25;0.50;;;0.40;;
31081;SDS011;17737;52.586;13.284;2023-02-28T10:05:20;0.50;;;0.50;;
31081;SDS011;17737;52.586;13.284;2023-02-28T10:07:58;0.55;;;0.55;;
31081;SDS011;17737;52.586;13.284;2023-02-28T10:10:36;0.40;;;0.40;;
31081;SDS011;17737;52.586;13.284;2023-02-28T10:13:14;0.73;;;0.60;;
31081;SDS011;17737;52.586;13.284;2023-02-28T10:15:52;0.47;;;0.40;;
31081;SDS011;17737;52.586;13.284;2023-02-28T10:18:28;0.65;;;0.65;;
31081;SDS011;17737;52.586;13.284;2023-02-28T10:21:10;0.63;;;0.30;;
31081;SDS011;17737;52.586;13.284;2023-02-28T10:23:48;0.40;;;0.40;;
31081;SDS011;17737;52.586;13.284;2023-02-28T10:26:25;0.40;;;0.40;;
31081;SDS011;17737;52.586;13.284;2023-02-28T10:28:59;0.40;;;0.40;;
31081;SDS011;17737;52.586;13.284;2023-02-28T10:31:28;0.40;;;0.40;;
31081;SDS011;17737;52.586;13.284;2023-02-28T10:33:57;0.45;;;0.45;;
31081;SDS011;17737;52.586;13.284;2023-02-28T10:36:27;0.47;;;0.35;;
31081;SDS011;17737;52.586;13.284;2023-02-28T10:38:56;0.40;;;0.40;;
31081;SDS011;17737;52.586;13.284;2023-02-28T10:41:27;0.30;;;0.30;;
31081;SDS011;17737;52.586;13.284;2023-02-28T10:46:49;0.50;;;0.50;;
31081;SDS011;17737;52.586;13.284;2023-02-28T10:51:54;0.40;;;0.40;;
31081;SDS011;17737;52.586;13.284;2023-02-28T10:54:29;0.40;;;0.40;;
31081;SDS011;17737;52.586;13.284;2023-02-28T10:57:08;0.60;;;0.60;;
31081;SDS011;17737;52.586;13.284;2023-02-28T10:59:47;0.40;;;0.40;;
31081;SDS011;17737;52.586;13.284;2023-02-28T11:02:29;0.40;;;0.40;;
31081;SDS011;17737;52.586;13.284;2023-02-28T11:05:01;0.40;;;0.40;;
31081;SDS011;17737;52.586;13.284;2023-02-28T11:07:30;0.68;;;0.68;;
31081;SDS011;17737;52.586;13.284;2023-02-28T11:10:16;0.30;;;0.30;;
31081;SDS011;17737;52.586;13.284;2023-02-28T11:12:48;0.30;;;0.30;;
31081;SDS011;17737;52.586;13.284;2023-02-28T11:15:21;0.40;;;0.40;;
31081;SDS011;17737;52.586;13.284;2023-02-28T11:17:53;0.70;;;0.70;;
31081;SDS011;17737;52.586;13.284;2023-02-28T11:20:25;0.40;;;0.40;;
31081;SDS011;17737;52.586;13.284;2023-02-28T11:22:57;0.60;;;0.60;;
31081;SDS011;17737;52.586;13.284;2023-02-28T11:25:30;0.60;;;0.60;;
31081;SDS011;17737;52.586;13.284;2023-02-28T11:28:01;0.40;;;0.40;;
31081;SDS011;17737;52.586;13.284;2023-02-28T11:30:35;0.40;;;0.40;;
31081;SDS011;17737;52.586;13.284;2023-02-28T11:33:18;0.40;;;0.40;;
31081;SDS011;17737;52.586;13.284;2023-02-28T11:36:02;0.40;;;0.40;;
31081;SDS011;17737;52.586;13.284;2023-02-28T11:38:38;0.45;;;0.45;;
31081;SDS011;17737;52.586;13.284;2023-02-28T11:41:10;0.43;;;0.43;;
31081;SDS011;17737;52.586;13.284;2023-02-28T11:44:10;0.30;;;0.30;;
31081;SDS011;17737;52.586;13.284;2023-02-28T11:46:58;0.40;;;0.40;;
31081;SDS011;17737;52.586;13.284;2023-02-28T11:49:37;0.43;;;0.43;;
31081;SDS011;17737;52.586;13.284;2023-02-28T11:52:20;0.40;;;0.40;;
31081;SDS011;17737;52.586;13.284;2023-02-28T11:55:08;0.40;;;0.40;;
31081;SDS011;17737;52.586;13.284;2023-02-28T11:57:56;0.30;;;0.30;;
31081;SDS011;17737;52.586;13.284;2023-02-28T12:00:58;0.30;;;0.30;;
31081;SDS011;17737;52.586;13.284;2023-02-28T12:03:45;0.45;;;0.45;;
31081;SDS011;17737;52.586;13.284;2023-02-28T12:06:32;0.40;;;0.40;;
31081;SDS011;17737;52.586;13.284;2023-02-28T12:09:17;0.50;;;0.50;;
31081;SDS011;17737;52.586;13.284;2023-02-28T12:12:07;0.28;;;0.28;;
31081;SDS011;17737;52.586;13.284;2023-02-28T12:15:05;0.45;;;0.45;;
31081;SDS011;17737;52.586;13.284;2023-02-28T12:18:10;0.40;;;0.40;;
31081;SDS011;17737;52.586;13.284;2023-02-28T12:21:01;0.43;;;0.43;;
31081;SDS011;17737;52.586;13.284;2023-02-28T12:23:51;0.55;;;0.55;;
31081;SDS011;17737;52.586;13.284;2023-02-28T12:26:46;0.40;;;0.40;;
31081;SDS011;17737;52.586;13.284;2023-02-28T12:29:19;0.40;;;0.40;;
31081;SDS011;17737;52.586;13.284;2023-02-28T12:31:55;0.60;;;0.60;;
31081;SDS011;17737;52.586;13.284;2023-02-28T12:34:33;0.45;;;0.45;;
31081;SDS011;17737;52.586;13.284;2023-02-28T12:37:10;0.40;;;0.40;;
31081;SDS011;17737;52.586;13.284;2023-02-28T12:39:50;0.40;;;0.40;;
31081;SDS011;17737;52.586;13.284;2023-02-28T12:42:26;0.52;;;0.50;;
31081;SDS011;17737;52.586;13.284;2023-02-28T12:45:00;0.40;;;0.40;;
31081;SDS011;17737;52.586;13.284;2023-02-28T12:47:38;0.47;;;0.47;;
31081;SDS011;17737;52.586;13.284;2023-02-28T12:50:13;0.40;;;0.40;;
31081;SDS011;17737;52.586;13.284;2023-02-28T12:52:46;0.40;;;0.40;;
31081;SDS011;17737;52.586;13.284;2023-02-28T12:55:27;0.50;;;0.50;;
31081;SDS011;17737;52.586;13.284;2023-02-28T12:58:08;0.73;;;0.57;;
31081;SDS011;17737;52.586;13.284;2023-02-28T13:00:49;0.45;;;0.45;;
31081;SDS011;17737;52.586;13.284;2023-02-28T13:03:57;0.40;;;0.40;;
31081;SDS011;17737;52.586;13.284;2023-02-28T13:07:03;0.40;;;0.40;;
31081;SDS011;17737;52.586;13.284;2023-02-28T13:09:52;0.40;;;0.40;;
31081;SDS011;17737;52.586;13.284;2023-02-28T13:12:25;0.60;;;0.60;;
31081;SDS011;17737;52.586;13.284;2023-02-28T13:15:00;0.40;;;0.40;;
31081;SDS011;17737;52.586;13.284;2023-02-28T13:17:38;0.40;;;0.40;;
31081;SDS011;17737;52.586;13.284;2023-02-28T13:22:46;0.60;;;0.60;;
31081;SDS011;17737;52.586;13.284;2023-02-28T13:31:26;0.50;;;0.50;;
31081;SDS011;17737;52.586;13.284;2023-02-28T13:34:06;0.50;;;0.50;;
31081;SDS011;17737;52.586;13.284;2023-02-28T13:36:42;0.65;;;0.65;;
31081;SDS011;17737;52.586;13.284;2023-02-28T13:42:30;0.30;;;0.30;;
31081;SDS011;17737;52.586;13.284;2023-02-28T13:47:54;0.57;;;0.57;;
31081;SDS011;17737;52.586;13.284;2023-02-28T13:50:28;0.43;;;0.43;;
31081;SDS011;17737;52.586;13.284;2023-02-28T13:53:06;0.50;;;0.50;;
31081;SDS011;17737;52.586;13.284;2023-02-28T13:56:22;0.43;;;0.43;;
31081;SDS011;17737;52.586;13.284;2023-02-28T13:59:16;0.50;;;0.50;;
31081;SDS011;17737;52.586;13.284;2023-02-28T14:02:02;0.57;;;0.57;;
31081;SDS011;17737;52.586;13.284;2023-02-28T14:05:00;0.63;;;0.63;;
31081;SDS011;17737;52.586;13.284;2023-02-28T14:07:41;0.50;;;0.50;;
31081;SDS011;17737;52.586;13.284;2023-02-28T14:10:23;0.40;;;0.40;;
31081;SDS011;17737;52.586;13.284;2023-02-28T14:12:58;0.50;;;0.50;;
31081;SDS011;17737;52.586;13.284;2023-02-28T14:15:41;0.47;;;0.47;;
31081;SDS011;17737;52.586;13.284;2023-02-28T14:18:21;0.40;;;0.40;;
31081;SDS011;17737;52.586;13.284;2023-02-28T14:30:42;0.50;;;0.50;;
31081;SDS011;17737;52.586;13.284;2023-02-28T14:33:32;0.50;;;0.50;;
31081;SDS011;17737;52.586;13.284;2023-02-28T14:36:18;0.38;;;0.38;;
31081;SDS011;17737;52.586;13.284;2023-02-28T14:38:59;0.55;;;0.55;;
31081;SDS011;17737;52.586;13.284;2023-02-28T14:41:39;0.50;;;0.50;;
31081;SDS011;17737;52.586;13.284;2023-02-28T14:44:16;0.50;;;0.50;;
31081;SDS011;17737;52.586;13.284;2023-02-28T14:46:49;0.60;;;0.60;;
31081;SDS011;17737;52.586;13.284;2023-02-28T14:49:21;0.43;;;0.43;;
31081;SDS011;17737;52.586;13.284;2023-02-28T14:52:02;0.40;;;0.40;;
31081;SDS011;17737;52.586;13.284;2023-02-28T14:54:36;0.55;;;0.52;;
31081;SDS011;17737;52.586;13.284;2023-02-28T14:57:04;1.00;;;0.55;;
31081;SDS011;17737;52.586;13.284;2023-02-28T15:00:00;0.50;;;0.50;;
31081;SDS011;17737;52.586;13.284;2023-02-28T15:02:40;0.95;;;0.50;;
31081;SDS011;17737;52.586;13.284;2023-02-28T15:05:19;0.70;;;0.70;;
31081;SDS011;17737;52.586;13.284;2023-02-28T15:08:00;1.85;;;0.50;;
31081;SDS011;17737;52.586;13.284;2023-02-28T15:10:33;0.40;;;0.40;;
31081;SDS011;17737;52.586;13.284;2023-02-28T15:13:02;0.40;;;0.40;;
31081;SDS011;17737;52.586;13.284;2023-02-28T15:15:39;0.57;;;0.57;;
31081;SDS011;17737;52.586;13.284;2023-02-28T15:18:30;0.50;;;0.50;;
31081;SDS011;17737;52.586;13.284;2023-02-28T15:21:11;0.50;;;0.50;;
31081;SDS011;17737;52.586;13.284;2023-02-28T15:23:44;0.60;;;0.60;;
31081;SDS011;17737;52.586;13.284;2023-02-28T15:26:25;0.57;;;0.57;;
31081;SDS011;17737;52.586;13.284;2023-02-28T15:29:04;0.47;;;0.47;;
31081;SDS011;17737;52.586;13.284;2023-02-28T15:31:37;0.43;;;0.43;;
31081;SDS011;17737;52.586;13.284;2023-02-28T15:34:26;0.40;;;0.40;;
31081;SDS011;17737;52.586;13.284;2023-02-28T15:40:11;0.40;;;0.40;;
31081;SDS011;17737;52.586;13.284;2023-02-28T15:42:57;0.60;;;0.45;;
31081;SDS011;17737;52.586;13.284;2023-02-28T15:45:27;0.32;;;0.32;;
31081;SDS011;17737;52.586;13.284;2023-02-28T15:48:04;0.50;;;0.50;;
31081;SDS011;17737;52.586;13.284;2023-02-28T15:50:41;0.50;;;0.50;;
31081;SDS011;17737;52.586;13.284;2023-02-28T15:55:42;0.50;;;0.50;;
31081;SDS011;17737;52.586;13.284;2023-02-28T15:58:21;0.57;;;0.57;;
31081;SDS011;17737;52.586;13.284;2023-02-28T16:01:06;0.93;;;0.50;;
31081;SDS011;17737;52.586;13.284;2023-02-28T16:03:48;0.57;;;0.57;;
31081;SDS011;17737;52.586;13.284;2023-02-28T16:06:38;0.57;;;0.57;;
31081;SDS011;17737;52.586;13.284;2023-02-28T16:09:09;0.80;;;0.80;;
31081;SDS011;17737;52.586;13.284;2023-02-28T16:11:41;0.60;;;0.60;;
31081;SDS011;17737;52.586;13.284;2023-02-28T16:14:14;1.60;;;0.68;;
31081;SDS011;17737;52.586;13.284;2023-02-28T16:16:51;0.50;;;0.50;;
31081;SDS011;17737;52.586;13.284;2023-02-28T16:19:22;0.40;;;0.40;;
31081;SDS011;17737;52.586;13.284;2023-02-28T16:21:52;0.53;;;0.53;;
31081;SDS011;17737;52.586;13.284;2023-02-28T16:24:20;0.60;;;0.60;;
31081;SDS011;17737;52.586;13.284;2023-02-28T16:26:48;0.40;;;0.40;;
31081;SDS011;17737;52.586;13.284;2023-02-28T16:29:23;0.50;;;0.40;;
31081;SDS011;17737;52.586;13.284;2023-02-28T16:31:54;0.70;;;0.70;;
31081;SDS011;17737;52.586;13.284;2023-02-28T16:34:23;0.60;;;0.60;;